Time;durP1;ratioP1;P1;durP2;ratioP2;P2;SDS_P1;SDS_P2;PMS_P1;PMS_P2;Temp;Humidity;BMP_temperature;BMP_pressure;BME280_temperature;BME280_humidity;BME280_pressure;Samples;Min_cycle;Max_cycle;Signal;HPM_P1;HPM_P2
2022/06/27 00:00:24;;;;;;;;;;;13.20;99.90;;;;;;5072882;28;20354;-75
2022/06/27 00:02:50;;;;;;;;;;;13.20;99.90;;;;;;5073193;28;19904;-75
2022/06/27 00:05:15;;;;;;;;;;;13.10;99.90;;;;;;5072200;28;20014;-75
2022/06/27 00:07:41;;;;;;;;;;;13.10;99.90;;;;;;5073142;28;19920;-75
2022/06/27 00:10:07;;;;;;;;;;;13.10;99.90;;;;;;5073134;28;19910;-75
2022/06/27 00:12:33;;;;;;;;;;;13.10;99.90;;;;;;5072955;28;19931;-74
2022/06/27 00:14:59;;;;;;;;;;;13.10;99.90;;;;;;5072781;28;19966;-75
2022/06/27 00:17:24;;;;;;;;;;;13.10;99.90;;;;;;5072529;28;19904;-74
2022/06/27 00:19:50;;;;;;;;;;;13.20;99.90;;;;;;5073022;28;20004;-75
2022/06/27 00:22:15;;;;;;;;;;;13.20;99.90;;;;;;5072374;28;20370;-75
2022/06/27 00:24:41;;;;;;;;;;;13.10;99.90;;;;;;5072880;28;19908;-75
2022/06/27 00:27:07;;;;;;;;;;;13.10;99.90;;;;;;5073040;28;19916;-74
2022/06/27 00:29:32;;;;;;;;;;;13.10;99.90;;;;;;5072151;28;20422;-75
2022/06/27 00:31:58;;;;;;;;;;;13.10;99.90;;;;;;5072988;28;19904;-75
2022/06/27 00:34:23;;;;;;;;;;;13.10;99.90;;;;;;5072171;28;20008;-74
2022/06/27 00:36:49;;;;;;;;;;;12.90;99.90;;;;;;5072026;28;19927;-74
2022/06/27 00:39:14;;;;;;;;;;;12.90;99.90;;;;;;5072361;28;19943;-75
2022/06/27 00:41:40;;;;;;;;;;;12.80;99.90;;;;;;5072564;28;19904;-74
2022/06/27 00:44:06;;;;;;;;;;;12.80;99.90;;;;;;5071695;28;20341;-74
2022/06/27 00:46:31;;;;;;;;;;;12.80;99.90;;;;;;5072171;28;20011;-74
2022/06/27 00:48:57;;;;;;;;;;;12.70;99.90;;;;;;5072686;28;20003;-75
2022/06/27 00:51:25;;;;;;;;;;;12.70;99.90;;;;;;5072414;28;19911;-74
2022/06/27 00:53:52;;;;;;;;;;;12.70;99.90;;;;;;5072719;28;19954;-74
2022/06/27 00:56:18;;;;;;;;;;;12.70;99.90;;;;;;5072002;28;19956;-74
2022/06/27 00:58:43;;;;;;;;;;;12.70;99.90;;;;;;5072631;28;20255;-74
2022/06/27 01:01:09;;;;;;;;;;;12.70;99.90;;;;;;5072706;28;19904;-74
2022/06/27 01:03:35;;;;;;;;;;;12.70;99.90;;;;;;5072049;28;19904;-74
2022/06/27 01:06:01;;;;;;;;;;;12.60;99.90;;;;;;5072766;28;19912;-74
2022/06/27 01:08:26;;;;;;;;;;;12.60;99.90;;;;;;5071787;28;20423;-74
2022/06/27 01:10:52;;;;;;;;;;;12.60;99.90;;;;;;5072275;28;19991;-74
2022/06/27 01:13:18;;;;;;;;;;;12.60;99.90;;;;;;5072229;28;19905;-74
2022/06/27 01:15:44;;;;;;;;;;;12.70;99.90;;;;;;5072682;28;19911;-74
2022/06/27 01:18:10;;;;;;;;;;;12.80;99.90;;;;;;5072537;28;20003;-74
2022/06/27 01:20:36;;;;;;;;;;;12.80;99.90;;;;;;5072200;28;19943;-74
2022/06/27 01:23:02;;;;;;;;;;;12.80;99.90;;;;;;5072397;28;19958;-74
2022/06/27 01:25:27;;;;;;;;;;;12.70;99.90;;;;;;5071771;28;19909;-74
2022/06/27 01:27:54;;;;;;;;;;;12.70;99.90;;;;;;5072149;28;19908;-74
2022/06/27 01:30:20;;;;;;;;;;;12.70;99.90;;;;;;5071930;28;20266;-75
2022/06/27 01:32:45;;;;;;;;;;;12.70;99.90;;;;;;5072312;28;19904;-75
2022/06/27 01:35:11;;;;;;;;;;;12.70;99.90;;;;;;5072372;28;19962;-75
2022/06/27 01:37:37;;;;;;;;;;;12.60;99.90;;;;;;5071574;28;19936;-74
2022/06/27 01:40:02;;;;;;;;;;;12.70;99.90;;;;;;5072543;28;19999;-74
2022/06/27 01:42:28;;;;;;;;;;;12.60;99.90;;;;;;5071723;28;19904;-74
2022/06/27 01:44:54;;;;;;;;;;;12.60;99.90;;;;;;5072351;28;19915;-74
2022/06/27 01:47:20;;;;;;;;;;;12.60;99.90;;;;;;5071870;28;19912;-75
2022/06/27 01:49:45;;;;;;;;;;;12.60;99.90;;;;;;5071657;28;19958;-74
2022/06/27 01:52:12;;;;;;;;;;;12.60;99.90;;;;;;5072079;28;19931;-74
2022/06/27 01:54:38;;;;;;;;;;;12.50;99.90;;;;;;5072789;28;20353;-74
2022/06/27 01:57:04;;;;;;;;;;;12.50;99.90;;;;;;5075475;28;19959;-74
2022/06/27 01:59:30;;;;;;;;;;;12.60;99.90;;;;;;5075396;28;19905;-74
2022/06/27 02:01:58;;;;;;;;;;;12.50;99.90;;;;;;5075412;28;20347;-75
2022/06/27 02:04:24;;;;;;;;;;;12.40;99.90;;;;;;5074985;28;19908;-74
2022/06/27 02:06:50;;;;;;;;;;;12.40;99.90;;;;;;5075227;28;19908;-75
2022/06/27 02:09:16;;;;;;;;;;;12.30;99.90;;;;;;5075304;28;19958;-74
2022/06/27 02:11:45;;;;;;;;;;;12.30;99.90;;;;;;5074904;28;19900;-76
2022/06/27 02:14:10;;;;;;;;;;;12.30;99.90;;;;;;5075557;28;19954;-76
2022/06/27 02:16:38;;;;;;;;;;;12.30;99.90;;;;;;5075224;28;19905;-74
2022/06/27 02:19:04;;;;;;;;;;;12.30;99.90;;;;;;5075516;28;19999;-74
2022/06/27 02:21:29;;;;;;;;;;;12.30;99.90;;;;;;5074834;28;20004;-74
2022/06/27 02:23:56;;;;;;;;;;;12.30;99.90;;;;;;5075355;28;19950;-74
2022/06/27 02:26:24;;;;;;;;;;;12.20;99.90;;;;;;5074990;28;20480;-74
2022/06/27 02:28:50;;;;;;;;;;;12.20;99.90;;;;;;5075294;28;20347;-74
2022/06/27 02:31:16;;;;;;;;;;;12.20;99.90;;;;;;5074923;28;19998;-74
2022/06/27 02:33:45;;;;;;;;;;;12.20;99.90;;;;;;5074115;28;20027;-74
2022/06/27 02:36:13;;;;;;;;;;;12.30;99.90;;;;;;5075235;28;19904;-74
2022/06/27 02:38:42;;;;;;;;;;;12.20;99.90;;;;;;5074347;28;20017;-74
2022/06/27 02:41:12;;;;;;;;;;;12.20;99.90;;;;;;5074857;28;19904;-74
2022/06/27 02:43:39;;;;;;;;;;;12.20;99.90;;;;;;5074725;28;20300;-74
2022/06/27 02:46:04;;;;;;;;;;;12.30;99.90;;;;;;5074588;28;19981;-74
2022/06/27 02:48:31;;;;;;;;;;;12.30;99.90;;;;;;5074215;28;19947;-74
2022/06/27 02:50:59;;;;;;;;;;;12.30;99.90;;;;;;5074958;28;19904;-74
2022/06/27 02:53:27;;;;;;;;;;;12.30;99.90;;;;;;5074566;28;19912;-74
2022/06/27 02:55:54;;;;;;;;;;;12.30;99.90;;;;;;5074374;28;19905;-74
2022/06/27 02:58:23;;;;;;;;;;;12.30;99.90;;;;;;5074443;28;20341;-74
2022/06/27 03:00:49;;;;;;;;;;;12.20;99.90;;;;;;5074106;28;19908;-75
2022/06/27 03:03:15;;;;;;;;;;;12.10;99.90;;;;;;5074612;28;19910;-74
2022/06/27 03:06:13;;;;;;;;;;;12.10;99.90;;;;;;5073071;28;20008;-75
2022/06/27 03:08:43;;;;;;;;;;;12.10;99.90;;;;;;5028902;28;19908;-75
2022/06/27 03:11:10;;;;;;;;;;;11.90;99.90;;;;;;5074169;28;19904;-74
2022/06/27 03:13:35;;;;;;;;;;;12.00;99.90;;;;;;5073831;28;19904;-74
2022/06/27 03:16:01;;;;;;;;;;;11.90;99.90;;;;;;5074315;28;19908;-74
2022/06/27 03:18:26;;;;;;;;;;;11.90;99.90;;;;;;5073777;28;19904;-74
2022/06/27 03:20:52;;;;;;;;;;;11.80;99.90;;;;;;5056586;28;19975;-74
2022/06/27 03:23:18;;;;;;;;;;;11.80;99.90;;;;;;5073915;28;20457;-74
2022/06/27 03:25:44;;;;;;;;;;;11.70;99.90;;;;;;5073305;28;19956;-74
2022/06/27 03:28:09;;;;;;;;;;;11.70;99.90;;;;;;5073790;28;20003;-74
2022/06/27 03:30:35;;;;;;;;;;;11.70;99.90;;;;;;5073461;28;19904;-74
2022/06/27 03:33:01;;;;;;;;;;;11.60;99.90;;;;;;5073828;28;20381;-74
2022/06/27 03:35:26;;;;;;;;;;;11.60;99.90;;;;;;5073680;28;20438;-74
2022/06/27 03:37:52;;;;;;;;;;;11.60;99.90;;;;;;5073686;28;19991;-74
2022/06/27 03:40:17;;;;;;;;;;;11.60;99.90;;;;;;5073717;28;20325;-74
2022/06/27 03:42:43;;;;;;;;;;;11.60;99.90;;;;;;5073189;28;19955;-74
2022/06/27 03:45:09;;;;;;;;;;;11.60;99.90;;;;;;5073694;28;19943;-74
2022/06/27 03:47:48;;;;;;;;;;;11.60;99.90;;;;;;5073001;28;19962;-74
2022/06/27 03:50:14;;;;;;;;;;;11.60;99.90;;;;;;5073596;28;19950;-74
2022/06/27 03:52:42;;;;;;;;;;;11.60;99.90;;;;;;5073057;28;19937;-74
2022/06/27 03:55:08;;;;;;;;;;;11.60;99.90;;;;;;5073480;28;19904;-74
2022/06/27 03:57:35;;;;;;;;;;;11.60;99.90;;;;;;5072846;28;19904;-75
2022/06/27 04:00:02;;;;;;;;;;;11.60;99.90;;;;;;5055554;28;19940;-74
2022/06/27 04:02:28;;;;;;;;;;;11.60;99.90;;;;;;5072993;28;19904;-74
2022/06/27 04:04:53;;;;;;;;;;;11.50;99.90;;;;;;5073124;28;19908;-74
2022/06/27 04:07:19;;;;;;;;;;;11.50;99.90;;;;;;5073400;28;20456;-74
2022/06/27 04:09:44;;;;;;;;;;;11.40;99.90;;;;;;5072504;28;19957;-75
2022/06/27 04:12:11;;;;;;;;;;;11.40;99.90;;;;;;5073213;28;19909;-74
2022/06/27 04:14:37;;;;;;;;;;;11.30;99.90;;;;;;5072782;28;20002;-74
2022/06/27 04:17:03;;;;;;;;;;;11.30;99.90;;;;;;5072529;28;20354;-74
2022/06/27 04:19:28;;;;;;;;;;;11.30;99.90;;;;;;5072252;28;19959;-74
2022/06/27 04:21:54;;;;;;;;;;;11.30;99.90;;;;;;5072649;28;19905;-74
2022/06/27 04:24:20;;;;;;;;;;;11.20;99.90;;;;;;5072645;28;19908;-74
2022/06/27 04:26:46;;;;;;;;;;;11.20;99.90;;;;;;5072429;28;19989;-74
2022/06/27 04:29:12;;;;;;;;;;;11.20;99.90;;;;;;5073034;28;19963;-74
2022/06/27 04:31:37;;;;;;;;;;;11.30;99.90;;;;;;5072407;28;19930;-74
2022/06/27 04:34:04;;;;;;;;;;;11.30;99.90;;;;;;5072678;28;20381;-74
2022/06/27 04:36:30;;;;;;;;;;;11.30;99.90;;;;;;5072689;28;19911;-74
2022/06/27 04:38:56;;;;;;;;;;;11.20;99.90;;;;;;5072753;28;19904;-74
2022/06/27 04:41:22;;;;;;;;;;;11.30;99.90;;;;;;5072721;28;19904;-74
2022/06/27 04:43:47;;;;;;;;;;;11.40;99.90;;;;;;5054297;28;20000;-74
2022/06/27 04:46:13;;;;;;;;;;;11.40;99.90;;;;;;5072320;28;19919;-74
2022/06/27 04:48:39;;;;;;;;;;;11.40;99.90;;;;;;5072161;28;19950;-74
2022/06/27 04:51:06;;;;;;;;;;;11.40;99.90;;;;;;5072708;28;20309;-74
2022/06/27 04:53:32;;;;;;;;;;;11.50;99.90;;;;;;5072193;28;19938;-74
2022/06/27 04:55:58;;;;;;;;;;;11.50;99.90;;;;;;5072534;28;19905;-74
2022/06/27 04:58:23;;;;;;;;;;;11.50;99.90;;;;;;5072464;28;19966;-74
2022/06/27 05:00:49;;;;;;;;;;;11.60;99.90;;;;;;5071924;28;19936;-74
2022/06/27 05:03:15;;;;;;;;;;;11.60;99.90;;;;;;5072653;28;19904;-74
2022/06/27 05:05:40;;;;;;;;;;;11.60;99.90;;;;;;5072013;28;20316;-74
2022/06/27 05:08:06;;;;;;;;;;;11.50;99.90;;;;;;5072501;28;19909;-74
2022/06/27 05:10:32;;;;;;;;;;;11.50;99.90;;;;;;5072237;28;20289;-74
2022/06/27 05:12:59;;;;;;;;;;;11.60;99.90;;;;;;5072135;28;19954;-74
2022/06/27 05:15:25;;;;;;;;;;;11.70;99.90;;;;;;5072483;28;20274;-74
2022/06/27 05:17:51;;;;;;;;;;;11.80;99.90;;;;;;5071977;28;19912;-75
2022/06/27 05:20:17;;;;;;;;;;;12.00;99.90;;;;;;5072914;28;19904;-74
2022/06/27 05:22:42;;;;;;;;;;;12.10;99.90;;;;;;5071680;28;20393;-74
2022/06/27 05:25:09;;;;;;;;;;;12.20;99.90;;;;;;5072488;28;19944;-75
2022/06/27 05:27:35;;;;;;;;;;;12.30;99.90;;;;;;5071341;28;19908;-74
2022/06/27 05:30:04;;;;;;;;;;;12.40;99.90;;;;;;5074817;28;19915;-74
2022/06/27 05:32:29;;;;;;;;;;;12.40;99.90;;;;;;5076302;28;19905;-74
2022/06/27 05:34:55;;;;;;;;;;;12.50;99.90;;;;;;5075302;28;19927;-75
2022/06/27 05:37:21;;;;;;;;;;;12.60;99.90;;;;;;5076138;28;19958;-74
2022/06/27 05:39:46;;;;;;;;;;;12.70;99.90;;;;;;5075607;28;19911;-74
2022/06/27 05:42:12;;;;;;;;;;;12.70;99.90;;;;;;5075984;28;20235;-74
2022/06/27 05:44:38;;;;;;;;;;;12.80;99.90;;;;;;5075357;28;20424;-74
2022/06/27 05:47:04;;;;;;;;;;;12.80;99.90;;;;;;5075687;28;19958;-74
2022/06/27 05:49:30;;;;;;;;;;;12.80;99.90;;;;;;5075978;28;19904;-75
2022/06/27 05:51:57;;;;;;;;;;;12.90;99.90;;;;;;5074974;28;20409;-74
2022/06/27 05:54:24;;;;;;;;;;;13.00;99.90;;;;;;5075633;28;19911;-75
2022/06/27 05:56:50;;;;;;;;;;;13.00;99.90;;;;;;5075146;28;19904;-74
2022/06/27 05:59:16;;;;;;;;;;;13.00;99.90;;;;;;5075950;28;19905;-75
2022/06/27 06:01:43;;;;;;;;;;;13.00;99.90;;;;;;5074920;28;19912;-75
2022/06/27 06:04:08;;;;;;;;;;;13.00;99.90;;;;;;5057514;28;19971;-75
2022/06/27 06:06:34;;;;;;;;;;;13.10;99.90;;;;;;5075170;28;19908;-75
2022/06/27 06:09:01;;;;;;;;;;;13.20;99.90;;;;;;5075116;28;19904;-75
2022/06/27 06:11:27;;;;;;;;;;;13.20;99.90;;;;;;5075481;28;19911;-75
2022/06/27 06:13:53;;;;;;;;;;;13.30;99.90;;;;;;5074608;28;19904;-75
2022/06/27 06:16:20;;;;;;;;;;;13.30;99.90;;;;;;5075323;28;19904;-76
2022/06/27 06:18:47;;;;;;;;;;;13.50;99.90;;;;;;5074377;28;20379;-74
2022/06/27 06:21:13;;;;;;;;;;;13.40;99.90;;;;;;5075333;28;19905;-76
2022/06/27 06:23:39;;;;;;;;;;;13.40;99.90;;;;;;5074586;28;20409;-75
2022/06/27 06:26:05;;;;;;;;;;;13.40;99.90;;;;;;5075422;28;19909;-75
2022/06/27 06:28:32;;;;;;;;;;;13.50;99.90;;;;;;5075182;28;19953;-75
2022/06/27 06:30:57;;;;;;;;;;;13.60;99.90;;;;;;5074413;28;19902;-75
2022/06/27 06:33:24;;;;;;;;;;;13.80;99.90;;;;;;5074596;28;19911;-75
2022/06/27 06:35:49;;;;;;;;;;;14.00;99.90;;;;;;5074247;28;20362;-75
2022/06/27 06:38:15;;;;;;;;;;;14.00;99.90;;;;;;5074787;28;19904;-75
2022/06/27 06:40:41;;;;;;;;;;;13.90;99.90;;;;;;5055402;28;19908;-75
2022/06/27 06:43:07;;;;;;;;;;;13.90;99.90;;;;;;5074752;28;19905;-75
2022/06/27 06:45:33;;;;;;;;;;;13.70;99.90;;;;;;5074548;28;19951;-75
2022/06/27 06:47:59;;;;;;;;;;;13.80;99.90;;;;;;5073852;28;19985;-75
2022/06/27 06:50:25;;;;;;;;;;;13.80;99.90;;;;;;5074613;28;19904;-75
2022/06/27 06:52:52;;;;;;;;;;;13.90;99.90;;;;;;5074277;28;19950;-75
2022/06/27 06:55:20;;;;;;;;;;;14.10;99.90;;;;;;5074652;28;20310;-77
2022/06/27 06:57:45;;;;;;;;;;;14.10;99.90;;;;;;5073956;28;19904;-75
2022/06/27 07:00:11;;;;;;;;;;;14.10;99.90;;;;;;5074358;28;19909;-75
2022/06/27 07:02:37;;;;;;;;;;;14.30;99.90;;;;;;5074079;28;19940;-75
2022/06/27 07:05:04;;;;;;;;;;;14.40;99.90;;;;;;5073813;28;19916;-75
2022/06/27 07:07:34;;;;;;;;;;;14.50;99.90;;;;;;5056210;28;19944;-75
2022/06/27 07:10:00;;;;;;;;;;;14.50;99.90;;;;;;5073713;28;19900;-75
2022/06/27 07:12:26;;;;;;;;;;;14.50;99.90;;;;;;5074164;28;19904;-75
2022/06/27 07:14:54;;;;;;;;;;;14.40;99.90;;;;;;5073561;28;19908;-75
2022/06/27 07:17:24;;;;;;;;;;;14.30;99.90;;;;;;5074098;28;20240;-75
2022/06/27 07:19:53;;;;;;;;;;;14.40;99.90;;;;;;5073662;28;19908;-75
2022/06/27 07:22:19;;;;;;;;;;;14.40;99.90;;;;;;5073553;28;19939;-75
2022/06/27 07:24:47;;;;;;;;;;;14.50;99.90;;;;;;5073509;28;20286;-74
2022/06/27 07:27:16;;;;;;;;;;;14.60;99.90;;;;;;5073903;28;20370;-75
2022/06/27 07:29:42;;;;;;;;;;;14.70;99.90;;;;;;5073907;28;19908;-74
2022/06/27 07:32:08;;;;;;;;;;;14.80;99.90;;;;;;5073833;28;19930;-74
2022/06/27 07:34:34;;;;;;;;;;;15.00;99.90;;;;;;5073502;28;19916;-76
2022/06/27 07:37:00;;;;;;;;;;;15.10;99.90;;;;;;5072962;28;19916;-75
2022/06/27 07:39:26;;;;;;;;;;;15.10;99.90;;;;;;5073562;28;19910;-75
2022/06/27 07:41:52;;;;;;;;;;;15.20;99.90;;;;;;5072890;28;20363;-75
2022/06/27 07:44:18;;;;;;;;;;;15.30;99.90;;;;;;5073583;28;19967;-76
2022/06/27 07:46:43;;;;;;;;;;;15.20;99.90;;;;;;5072876;28;19908;-75
2022/06/27 07:49:09;;;;;;;;;;;15.20;99.90;;;;;;5073847;28;20343;-76
2022/06/27 07:51:35;;;;;;;;;;;15.30;99.90;;;;;;5073699;28;19936;-76
2022/06/27 07:54:01;;;;;;;;;;;15.40;99.90;;;;;;5072732;28;19919;-76
2022/06/27 07:56:27;;;;;;;;;;;15.40;99.90;;;;;;5073331;28;19905;-76
2022/06/27 07:58:53;;;;;;;;;;;15.50;99.90;;;;;;5072399;28;19930;-76
2022/06/27 08:01:19;;;;;;;;;;;15.60;99.90;;;;;;5073268;28;19905;-76
2022/06/27 08:03:48;;;;;;;;;;;15.60;99.90;;;;;;5054474;28;20329;-75
2022/06/27 08:06:15;;;;;;;;;;;15.40;99.90;;;;;;5073028;28;19908;-76
2022/06/27 08:08:45;;;;;;;;;;;15.50;99.90;;;;;;5073486;28;19912;-76
2022/06/27 08:11:13;;;;;;;;;;;15.70;99.90;;;;;;5073392;28;20397;-76
2022/06/27 08:13:40;;;;;;;;;;;15.90;99.90;;;;;;5073114;28;19908;-76
2022/06/27 08:16:06;;;;;;;;;;;15.80;99.90;;;;;;5072467;28;19957;-77
2022/06/27 08:18:32;;;;;;;;;;;15.60;99.90;;;;;;5073058;28;19912;-77
2022/06/27 08:21:00;;;;;;;;;;;15.70;99.90;;;;;;5072405;28;19904;-77
2022/06/27 08:23:26;;;;;;;;;;;15.50;99.90;;;;;;5072740;28;19905;-76
2022/06/27 08:25:52;;;;;;;;;;;15.30;99.90;;;;;;5072128;28;20273;-76
2022/06/27 08:28:20;;;;;;;;;;;15.20;99.90;;;;;;5072567;28;19912;-76
2022/06/27 08:30:45;;;;;;;;;;;15.20;99.90;;;;;;5054501;28;20316;-76
2022/06/27 08:33:12;;;;;;;;;;;15.50;99.90;;;;;;5072812;28;19916;-76
2022/06/27 08:35:44;;;;;;;;;;;15.60;99.90;;;;;;5072381;28;19916;-74
2022/06/27 08:38:10;;;;;;;;;;;15.80;99.90;;;;;;5054588;28;19904;-74
2022/06/27 08:40:36;;;;;;;;;;;16.00;99.90;;;;;;5072674;28;19904;-76
2022/06/27 08:43:02;;;;;;;;;;;16.30;99.90;;;;;;5071795;28;19909;-75
2022/06/27 08:45:30;;;;;;;;;;;16.30;99.90;;;;;;5072760;28;19908;-75
2022/06/27 08:47:58;;;;;;;;;;;16.40;99.90;;;;;;5071942;28;19912;-75
2022/06/27 08:50:25;;;;;;;;;;;16.40;99.90;;;;;;5072008;28;19927;-75
2022/06/27 08:52:52;;;;;;;;;;;16.40;99.90;;;;;;5071562;28;19908;-75
2022/06/27 08:55:18;;;;;;;;;;;16.50;99.90;;;;;;5071965;28;19904;-75
2022/06/27 08:57:45;;;;;;;;;;;16.60;99.90;;;;;;5071731;28;19958;-76
2022/06/27 09:00:12;;;;;;;;;;;16.70;99.90;;;;;;5072273;28;19904;-75
2022/06/27 09:02:42;;;;;;;;;;;16.90;99.90;;;;;;5072183;28;19904;-75
2022/06/27 09:05:28;;;;;;;;;;;17.00;99.90;;;;;;5073831;28;20007;-75
2022/06/27 09:07:55;;;;;;;;;;;16.90;99.90;;;;;;5074966;28;19912;-74
2022/06/27 09:10:25;;;;;;;;;;;16.90;99.90;;;;;;5076525;28;19904;-76
2022/06/27 09:12:55;;;;;;;;;;;17.00;99.90;;;;;;5075785;28;19923;-76
2022/06/27 09:15:22;;;;;;;;;;;16.80;99.90;;;;;;5058852;28;19965;-77
2022/06/27 09:18:04;;;;;;;;;;;16.70;99.90;;;;;;5075539;28;19975;-76
2022/06/27 09:20:49;;;;;;;;;;;16.60;99.90;;;;;;5075790;28;20397;-77
2022/06/27 09:23:24;;;;;;;;;;;16.60;99.90;;;;;;5076554;28;19911;-77
2022/06/27 09:25:56;;;;;;;;;;;16.70;99.90;;;;;;5075684;28;19909;-75
2022/06/27 09:28:23;;;;;;;;;;;16.70;99.90;;;;;;5076293;28;19912;-76
2022/06/27 09:30:49;;;;;;;;;;;16.60;99.90;;;;;;5075713;28;19911;-75
2022/06/27 09:33:16;;;;;;;;;;;16.40;99.90;;;;;;5076140;28;19904;-76
2022/06/27 09:35:44;;;;;;;;;;;16.40;99.90;;;;;;5075772;28;19928;-76
2022/06/27 09:38:10;;;;;;;;;;;16.50;99.90;;;;;;5075446;28;19905;-76
2022/06/27 09:40:39;;;;;;;;;;;16.70;99.90;;;;;;5075969;28;19905;-77
2022/06/27 09:43:06;;;;;;;;;;;16.60;99.90;;;;;;5075040;28;19951;-76
2022/06/27 09:45:31;;;;;;;;;;;16.50;99.90;;;;;;5075701;28;19958;-77
2022/06/27 09:48:04;;;;;;;;;;;16.30;99.90;;;;;;5075266;28;19912;-76
2022/06/27 09:50:33;;;;;;;;;;;16.20;99.90;;;;;;5075866;28;19904;-76
2022/06/27 09:52:59;;;;;;;;;;;16.40;99.90;;;;;;5075098;28;19930;-75
2022/06/27 09:55:25;;;;;;;;;;;16.70;99.90;;;;;;5075643;28;19999;-76
2022/06/27 09:57:55;;;;;;;;;;;16.80;99.90;;;;;;5075011;28;19930;-75
2022/06/27 10:00:21;;;;;;;;;;;16.90;99.90;;;;;;5075663;28;20003;-76
2022/06/27 10:02:47;;;;;;;;;;;17.10;99.90;;;;;;5075363;28;19935;-76
2022/06/27 10:05:16;;;;;;;;;;;17.20;99.90;;;;;;5074447;28;20450;-76
2022/06/27 10:08:02;;;;;;;;;;;17.30;99.90;;;;;;5075506;28;19909;-76
2022/06/27 10:10:51;;;;;;;;;;;17.20;99.90;;;;;;5074585;28;19908;-76
2022/06/27 10:13:17;;;;;;;;;;;17.10;99.90;;;;;;5074849;28;19911;-75
2022/06/27 10:15:43;;;;;;;;;;;17.00;99.90;;;;;;5056973;28;19906;-76
2022/06/27 10:18:08;;;;;;;;;;;16.90;99.90;;;;;;5056248;28;19911;-76
2022/06/27 10:20:36;;;;;;;;;;;16.70;99.90;;;;;;5074851;28;20342;-76
2022/06/27 10:23:11;;;;;;;;;;;16.60;99.90;;;;;;5074121;28;19908;-76
2022/06/27 10:25:44;;;;;;;;;;;16.40;99.90;;;;;;5074278;28;19908;-76
2022/06/27 10:28:09;;;;;;;;;;;16.10;99.90;;;;;;5055822;28;19908;-76
2022/06/27 10:31:08;;;;;;;;;;;15.90;99.90;;;;;;5074486;28;20263;-76
2022/06/27 10:33:34;;;;;;;;;;;15.80;99.90;;;;;;5029845;28;19915;-76
2022/06/27 10:36:11;;;;;;;;;;;15.70;99.90;;;;;;5073756;28;20262;-77
2022/06/27 10:38:39;;;;;;;;;;;15.80;99.90;;;;;;5074481;28;19912;-76
2022/06/27 10:41:06;;;;;;;;;;;15.80;99.90;;;;;;5073946;28;20343;-76
2022/06/27 10:43:41;;;;;;;;;;;15.80;99.90;;;;;;5074163;28;20008;-75
2022/06/27 10:46:10;;;;;;;;;;;15.80;99.90;;;;;;5073600;28;19909;-75
2022/06/27 10:48:36;;;;;;;;;;;15.80;99.90;;;;;;5074146;28;19959;-77
2022/06/27 10:51:27;;;;;;;;;;;15.70;99.90;;;;;;5073433;28;19948;-75
2022/06/27 10:53:58;;;;;;;;;;;15.80;99.90;;;;;;5073402;28;19932;-75
2022/06/27 10:56:34;;;;;;;;;;;16.00;99.90;;;;;;5073880;28;19908;-75
2022/06/27 10:59:01;;;;;;;;;;;16.10;99.90;;;;;;5073138;28;19904;-75
2022/06/27 11:01:27;;;;;;;;;;;16.30;99.90;;;;;;5074065;28;19905;-75
2022/06/27 11:03:53;;;;;;;;;;;16.40;99.90;;;;;;5074164;28;20339;-75
2022/06/27 11:06:19;;;;;;;;;;;16.60;99.90;;;;;;5073454;28;19909;-76
2022/06/27 11:08:46;;;;;;;;;;;16.60;99.90;;;;;;5073716;28;19908;-75
2022/06/27 11:11:16;;;;;;;;;;;16.70;99.90;;;;;;5073004;28;20485;-75
2022/06/27 11:13:41;;;;;;;;;;;16.80;99.90;;;;;;5074061;28;20385;-76
2022/06/27 11:16:08;;;;;;;;;;;17.00;99.90;;;;;;5073570;28;19905;-76
2022/06/27 11:18:41;;;;;;;;;;;17.10;99.90;;;;;;5073973;28;20266;-76
2022/06/27 11:21:08;;;;;;;;;;;17.20;99.90;;;;;;5073113;28;19994;-76
2022/06/27 11:23:54;;;;;;;;;;;17.40;99.90;;;;;;5074135;28;19912;-76
2022/06/27 11:26:20;;;;;;;;;;;17.40;99.90;;;;;;5072950;28;19915;-76
2022/06/27 11:34:14;;;;;;;;;;;17.80;99.90;;;;;;5073434;28;19918;-76
2022/06/27 11:36:40;;;;;;;;;;;17.80;99.90;;;;;;5073700;28;19908;-76
2022/06/27 11:39:06;;;;;;;;;;;17.70;99.90;;;;;;5073393;28;19904;-77
2022/06/27 11:41:36;;;;;;;;;;;17.70;99.90;;;;;;5073372;28;19957;-76
2022/06/27 11:44:08;;;;;;;;;;;17.70;99.90;;;;;;5073146;28;19908;-77
2022/06/27 11:46:45;;;;;;;;;;;17.60;99.90;;;;;;5073776;28;20339;-76
2022/06/27 11:49:18;;;;;;;;;;;17.50;99.90;;;;;;5072989;28;20404;-76
2022/06/27 11:51:47;;;;;;;;;;;17.40;99.90;;;;;;5073304;28;20428;-77
2022/06/27 11:54:22;;;;;;;;;;;17.40;99.90;;;;;;5072983;28;19955;-76
2022/06/27 11:56:48;;;;;;;;;;;17.30;99.90;;;;;;5073287;28;20320;-76
2022/06/27 11:59:15;;;;;;;;;;;17.30;99.90;;;;;;5072762;28;19924;-76
2022/06/27 12:01:56;;;;;;;;;;;17.30;99.90;;;;;;5073426;28;19904;-76
2022/06/27 12:04:26;;;;;;;;;;;17.30;99.90;;;;;;5073150;28;20385;-76
2022/06/27 12:06:56;;;;;;;;;;;17.30;99.90;;;;;;5073133;28;19957;-76
2022/06/27 12:09:22;;;;;;;;;;;17.40;99.90;;;;;;5073022;28;19908;-76
2022/06/27 12:11:56;;;;;;;;;;;17.40;99.90;;;;;;5073007;28;19904;-76
2022/06/27 12:14:22;;;;;;;;;;;17.40;99.90;;;;;;5072720;28;19915;-77
2022/06/27 12:16:49;;;;;;;;;;;17.50;99.90;;;;;;5072511;28;19904;-76
2022/06/27 12:19:15;;;;;;;;;;;17.50;99.90;;;;;;5072046;28;19942;-75
2022/06/27 12:21:41;;;;;;;;;;;17.60;99.90;;;;;;5072590;28;19910;-75
2022/06/27 12:24:06;;;;;;;;;;;17.70;99.90;;;;;;5071406;28;20006;-74
2022/06/27 12:26:32;;;;;;;;;;;17.80;99.90;;;;;;5072117;28;20344;-75
2022/06/27 12:28:57;;;;;;;;;;;17.80;99.90;;;;;;5071593;28;19911;-74
2022/06/27 12:31:23;;;;;;;;;;;17.90;99.90;;;;;;5054283;28;19911;-75
2022/06/27 12:33:49;;;;;;;;;;;18.00;99.90;;;;;;5071787;28;19920;-74
2022/06/27 12:36:15;;;;;;;;;;;18.10;99.90;;;;;;5071513;28;19904;-75
2022/06/27 12:38:41;;;;;;;;;;;18.20;99.90;;;;;;5071182;28;19911;-74
2022/06/27 12:41:14;;;;;;;;;;;18.30;99.90;;;;;;5071451;28;20358;-74
2022/06/27 12:43:44;;;;;;;;;;;18.50;99.90;;;;;;5072117;28;19904;-74
2022/06/27 12:46:10;;;;;;;;;;;18.60;99.90;;;;;;5071644;28;20016;-75
2022/06/27 12:48:37;;;;;;;;;;;18.50;99.90;;;;;;5054004;28;20420;-75
2022/06/27 12:51:03;;;;;;;;;;;18.40;99.90;;;;;;5053678;28;20270;-74
2022/06/27 12:53:29;;;;;;;;;;;18.40;99.90;;;;;;5053853;28;19911;-74
2022/06/27 12:55:54;;;;;;;;;;;18.30;99.90;;;;;;5072024;28;19904;-75
2022/06/27 12:58:21;;;;;;;;;;;18.30;99.90;;;;;;5071464;28;20355;-75
2022/06/27 13:00:46;;;;;;;;;;;18.10;99.90;;;;;;5071549;28;19987;-75
2022/06/27 13:03:12;;;;;;;;;;;17.90;99.90;;;;;;5071408;28;19995;-74
2022/06/27 13:05:38;;;;;;;;;;;17.80;99.90;;;;;;5072149;28;19915;-75
2022/06/27 13:08:04;;;;;;;;;;;17.60;99.90;;;;;;5071888;28;19946;-75
2022/06/27 13:10:30;;;;;;;;;;;17.50;99.90;;;;;;5071838;28;19910;-75
2022/06/27 13:12:56;;;;;;;;;;;17.40;99.90;;;;;;5071861;28;19987;-75
2022/06/27 13:15:21;;;;;;;;;;;17.40;99.90;;;;;;5053786;28;20265;-75
2022/06/27 13:17:48;;;;;;;;;;;17.60;99.90;;;;;;5072323;28;19908;-75
2022/06/27 13:20:13;;;;;;;;;;;17.80;99.90;;;;;;5071736;28;20355;-75
2022/06/27 13:22:39;;;;;;;;;;;17.90;99.90;;;;;;5072413;28;19908;-75
2022/06/27 13:25:05;;;;;;;;;;;17.90;99.90;;;;;;5061663;28;19912;-75
2022/06/27 13:27:31;;;;;;;;;;;17.90;99.90;;;;;;5051434;28;19913;-76
2022/06/27 13:29:56;;;;;;;;;;;18.00;99.90;;;;;;5051837;28;20071;-76
2022/06/27 13:32:22;;;;;;;;;;;18.10;99.90;;;;;;5051417;28;19905;-76
2022/06/27 13:34:47;;;;;;;;;;;18.10;99.90;;;;;;5051505;28;20053;-75
2022/06/27 13:37:13;;;;;;;;;;;18.30;99.90;;;;;;5051492;28;19905;-75
2022/06/27 13:39:38;;;;;;;;;;;18.50;99.90;;;;;;5051566;28;20378;-77
2022/06/27 13:42:04;;;;;;;;;;;18.70;99.90;;;;;;5066841;28;19912;-77
2022/06/27 13:44:32;;;;;;;;;;;18.80;99.90;;;;;;5051912;28;19995;-77
2022/06/27 13:47:00;;;;;;;;;;;18.90;99.90;;;;;;5051677;28;19916;-77
2022/06/27 13:49:26;;;;;;;;;;;19.00;99.90;;;;;;5051881;28;19905;-77
2022/06/27 13:51:52;;;;;;;;;;;19.00;99.90;;;;;;5055182;28;19908;-76
2022/06/27 13:54:17;;;;;;;;;;;19.10;99.90;;;;;;5055162;28;19911;-77
2022/06/27 13:56:43;;;;;;;;;;;19.00;99.90;;;;;;5055641;28;19908;-77
2022/06/27 13:59:13;;;;;;;;;;;19.00;99.90;;;;;;5070503;28;19905;-77
2022/06/27 14:01:42;;;;;;;;;;;18.90;99.90;;;;;;5055221;28;19958;-77
2022/06/27 14:04:08;;;;;;;;;;;19.00;99.90;;;;;;5055035;28;20060;-76
2022/06/27 14:09:17;;;;;;;;;;;18.90;99.90;;;;;;5055001;28;19970;-77
2022/06/27 14:11:43;;;;;;;;;;;18.90;99.90;;;;;;5055416;28;20347;-77
2022/06/27 14:14:08;;;;;;;;;;;18.80;99.90;;;;;;5054294;28;19904;-77
2022/06/27 14:16:34;;;;;;;;;;;18.90;99.90;;;;;;5055024;28;20385;-76
2022/06/27 14:19:01;;;;;;;;;;;18.90;99.90;;;;;;5055124;28;19927;-77
2022/06/27 14:21:27;;;;;;;;;;;18.80;99.90;;;;;;5054780;28;20298;-77
2022/06/27 14:23:53;;;;;;;;;;;18.80;99.90;;;;;;5055071;28;19932;-76